createdAt,value
2017-01-07T00:00:04.652Z,0
2017-01-07T00:01:15.374Z,0
2017-01-07T00:02:26.079Z,0
2017-01-07T00:03:36.800Z,0
2017-01-07T00:04:47.494Z,0
2017-01-07T00:05:58.232Z,0
2017-01-07T00:07:08.949Z,0
2017-01-07T00:08:19.633Z,0
2017-01-07T00:09:30.350Z,0
2017-01-07T00:10:41.088Z,0
2017-01-07T00:11:51.797Z,0
2017-01-07T00:13:02.516Z,0
2017-01-07T00:14:13.233Z,0
2017-01-07T00:15:23.922Z,0
2017-01-07T00:16:34.630Z,0
2017-01-07T00:17:45.351Z,0
2017-01-07T00:18:56.063Z,0
2017-01-07T00:20:06.782Z,0
2017-01-07T00:21:17.507Z,0
2017-01-07T00:22:28.227Z,0
2017-01-07T00:23:38.932Z,0
2017-01-07T00:24:49.629Z,0
2017-01-07T00:26:00.373Z,0
2017-01-07T00:27:11.092Z,0
2017-01-07T00:28:21.806Z,0
2017-01-07T00:29:32.516Z,0
2017-01-07T00:30:43.244Z,0
2017-01-07T00:31:53.976Z,0
2017-01-07T00:33:04.686Z,0
2017-01-07T00:34:15.394Z,0
2017-01-07T00:35:26.140Z,0
2017-01-07T00:36:36.835Z,0
2017-01-07T00:37:47.529Z,0
2017-01-07T00:38:58.224Z,0
2017-01-07T00:40:08.941Z,0
2017-01-07T00:41:19.662Z,0
2017-01-07T00:42:30.383Z,0
2017-01-07T00:43:41.104Z,0
2017-01-07T00:44:51.832Z,0
2017-01-07T00:46:02.551Z,0
2017-01-07T00:47:13.302Z,0
2017-01-07T00:48:24.325Z,0
2017-01-07T00:49:35.015Z,0
2017-01-07T00:50:45.741Z,0
2017-01-07T00:51:56.471Z,0
2017-01-07T00:53:07.220Z,0
2017-01-07T00:54:17.920Z,0
2017-01-07T00:55:28.622Z,0
2017-01-07T00:56:39.354Z,0
2017-01-07T00:57:50.062Z,0
2017-01-07T00:59:00.787Z,0
2017-01-07T01:00:11.525Z,0
2017-01-07T01:01:22.227Z,0
2017-01-07T01:02:32.941Z,0
2017-01-07T01:03:43.641Z,0
2017-01-07T01:04:54.379Z,0
2017-01-07T01:06:05.114Z,0
2017-01-07T01:07:15.843Z,0
2017-01-07T01:08:26.552Z,0
2017-01-07T01:09:37.263Z,0
2017-01-07T01:10:48.008Z,0
2017-01-07T01:11:58.734Z,0
2017-01-07T01:13:09.450Z,0
2017-01-07T01:14:20.192Z,0
2017-01-07T01:15:30.898Z,0
2017-01-07T01:16:41.634Z,0
2017-01-07T01:17:52.358Z,0
2017-01-07T01:19:03.082Z,0
2017-01-07T01:20:13.794Z,0
2017-01-07T01:21:24.521Z,0
2017-01-07T01:22:35.239Z,0
2017-01-07T01:23:45.967Z,0
2017-01-07T01:24:56.688Z,0
2017-01-07T01:26:07.384Z,0
2017-01-07T01:27:18.063Z,0
2017-01-07T01:28:28.794Z,0
2017-01-07T01:29:39.504Z,0
2017-01-07T01:30:50.618Z,0
2017-01-07T01:32:01.317Z,0
2017-01-07T01:33:12.010Z,0
2017-01-07T01:34:22.707Z,0
2017-01-07T01:35:33.430Z,0
2017-01-07T01:36:44.148Z,0
2017-01-07T01:37:54.848Z,0
2017-01-07T01:39:05.581Z,0
2017-01-07T01:40:16.290Z,0
2017-01-07T01:41:27.002Z,0
2017-01-07T01:42:37.723Z,0
2017-01-07T01:43:48.453Z,0
2017-01-07T01:44:59.174Z,0
2017-01-07T01:46:09.882Z,0
2017-01-07T01:47:20.619Z,0
2017-01-07T01:48:31.356Z,0
2017-01-07T01:49:42.073Z,0
2017-01-07T01:50:52.769Z,0
2017-01-07T01:52:03.451Z,0
2017-01-07T01:53:14.178Z,0
2017-01-07T01:54:24.891Z,0
2017-01-07T01:55:35.610Z,0
2017-01-07T01:56:46.304Z,0
2017-01-07T01:57:57.029Z,0
2017-01-07T01:59:07.772Z,0
2017-01-07T02:00:18.513Z,0
2017-01-07T02:01:29.232Z,0
2017-01-07T02:02:39.954Z,0
2017-01-07T02:03:50.696Z,0
2017-01-07T02:05:01.419Z,0
2017-01-07T02:06:12.129Z,0
2017-01-07T02:07:22.862Z,0
2017-01-07T02:08:33.587Z,0
2017-01-07T02:09:44.300Z,0
2017-01-07T02:10:55.029Z,0
2017-01-07T02:12:05.753Z,0
2017-01-07T02:13:16.450Z,0
2017-01-07T02:14:27.188Z,0
2017-01-07T02:15:37.892Z,0
2017-01-07T02:16:48.588Z,0
2017-01-07T02:17:59.333Z,0
2017-01-07T02:19:10.453Z,0
2017-01-07T02:20:21.172Z,0
2017-01-07T02:21:31.889Z,0
2017-01-07T02:22:42.606Z,0
2017-01-07T02:23:53.331Z,0
2017-01-07T02:25:04.084Z,0
2017-01-07T02:26:14.795Z,0
2017-01-07T02:27:25.504Z,0
2017-01-07T02:28:36.219Z,0
2017-01-07T02:29:46.935Z,0
2017-01-07T02:30:57.666Z,0
2017-01-07T02:32:08.409Z,0
2017-01-07T02:33:19.103Z,0
2017-01-07T02:34:29.802Z,0
2017-01-07T02:35:40.522Z,0
2017-01-07T02:36:51.219Z,0
2017-01-07T02:38:01.939Z,0
2017-01-07T02:39:12.642Z,0
2017-01-07T02:40:23.370Z,0
2017-01-07T02:41:34.082Z,0
2017-01-07T02:42:45.566Z,0
2017-01-07T02:43:56.288Z,0
2017-01-07T02:45:06.993Z,0
2017-01-07T02:46:17.683Z,0
2017-01-07T02:47:28.775Z,0
2017-01-07T02:48:39.483Z,0
2017-01-07T02:49:50.204Z,0
2017-01-07T02:51:00.921Z,0
2017-01-07T02:52:11.639Z,0
2017-01-07T02:53:22.317Z,0
2017-01-07T02:54:33.056Z,0
2017-01-07T02:55:43.770Z,0
2017-01-07T02:56:54.472Z,0
2017-01-07T02:58:05.206Z,0
2017-01-07T02:59:15.930Z,0
2017-01-07T03:00:26.659Z,0
2017-01-07T03:01:37.359Z,0
2017-01-07T03:02:48.084Z,0
2017-01-07T03:03:58.797Z,0
2017-01-07T03:05:09.496Z,0
2017-01-07T03:06:20.248Z,0
2017-01-07T03:07:30.963Z,0
2017-01-07T03:08:41.699Z,0
2017-01-07T03:09:52.407Z,0
2017-01-07T03:11:03.098Z,0
2017-01-07T03:12:13.819Z,0
2017-01-07T03:13:24.541Z,0
2017-01-07T03:14:35.262Z,0
2017-01-07T03:15:45.983Z,0
2017-01-07T03:16:56.685Z,0
2017-01-07T03:18:07.791Z,0
2017-01-07T03:19:18.499Z,0
2017-01-07T03:20:29.224Z,0
2017-01-07T03:21:39.937Z,0
2017-01-07T03:22:50.652Z,0
2017-01-07T03:24:01.385Z,0
2017-01-07T03:25:12.100Z,0
2017-01-07T03:26:22.796Z,0
2017-01-07T03:27:33.513Z,0
2017-01-07T03:28:44.213Z,0
2017-01-07T03:29:54.955Z,0
2017-01-07T03:31:05.683Z,0
2017-01-07T03:32:16.401Z,0
2017-01-07T03:33:27.115Z,0
2017-01-07T03:34:37.841Z,0
2017-01-07T03:35:48.566Z,0
2017-01-07T03:36:59.263Z,0
2017-01-07T03:38:09.982Z,0
2017-01-07T03:39:20.682Z,0
2017-01-07T03:40:31.392Z,0
2017-01-07T03:41:42.102Z,0
2017-01-07T03:42:52.839Z,0
2017-01-07T03:44:03.539Z,0
2017-01-07T03:45:14.259Z,0
2017-01-07T03:46:24.971Z,0
2017-01-07T03:47:35.697Z,0
2017-01-07T03:48:46.793Z,0
2017-01-07T03:49:57.539Z,0
2017-01-07T03:51:08.245Z,0
2017-01-07T03:52:18.939Z,0
2017-01-07T03:53:29.656Z,0
2017-01-07T03:54:40.352Z,0
2017-01-07T03:55:51.069Z,0
2017-01-07T03:57:01.790Z,0
2017-01-07T03:58:12.496Z,0
2017-01-07T03:59:23.215Z,0
2017-01-07T04:00:33.917Z,0
2017-01-07T04:01:44.629Z,0
2017-01-07T04:02:55.326Z,0
2017-01-07T04:04:06.025Z,0
2017-01-07T04:05:16.722Z,0
2017-01-07T04:06:27.455Z,0
2017-01-07T04:07:38.205Z,0
2017-01-07T04:08:48.909Z,0
2017-01-07T04:09:59.619Z,0
2017-01-07T04:11:10.327Z,0
2017-01-07T04:12:21.024Z,0
2017-01-07T04:13:31.731Z,0
2017-01-07T04:14:42.456Z,0
2017-01-07T04:15:53.162Z,0
2017-01-07T04:17:03.924Z,0
2017-01-07T04:18:14.633Z,0
2017-01-07T04:19:25.363Z,0
2017-01-07T04:20:36.084Z,0
2017-01-07T04:21:46.784Z,0
2017-01-07T04:22:57.484Z,0
2017-01-07T04:24:08.205Z,0
2017-01-07T04:25:18.907Z,0
2017-01-07T04:26:29.629Z,0
2017-01-07T04:27:40.342Z,0
2017-01-07T04:28:51.043Z,0
2017-01-07T04:30:01.769Z,0
2017-01-07T04:31:12.498Z,0
2017-01-07T04:32:23.203Z,0
2017-01-07T04:33:34.301Z,0
2017-01-07T04:34:45.022Z,0
2017-01-07T04:35:55.746Z,0
2017-01-07T04:37:06.437Z,0
2017-01-07T04:38:17.158Z,0
2017-01-07T04:39:27.889Z,0
2017-01-07T04:40:38.604Z,0
2017-01-07T04:41:49.296Z,0
2017-01-07T04:42:59.997Z,0
2017-01-07T04:44:10.709Z,0
2017-01-07T04:45:21.427Z,0
2017-01-07T04:46:32.147Z,0
2017-01-07T04:47:42.854Z,0
2017-01-07T04:48:53.549Z,0
2017-01-07T04:50:04.269Z,0
2017-01-07T04:51:15.014Z,0
2017-01-07T04:52:25.744Z,0
2017-01-07T04:53:36.477Z,0
2017-01-07T04:54:47.195Z,0
2017-01-07T04:55:57.920Z,0
2017-01-07T04:57:08.640Z,0
2017-01-07T04:58:19.373Z,0
2017-01-07T04:59:30.105Z,0
2017-01-07T05:00:40.838Z,0
2017-01-07T05:01:51.564Z,0
2017-01-07T05:03:02.278Z,0
2017-01-07T05:04:13.003Z,0
2017-01-07T05:05:23.739Z,0
2017-01-07T05:06:34.439Z,0
2017-01-07T05:07:45.156Z,0
2017-01-07T05:08:55.903Z,0
2017-01-07T05:10:06.605Z,0
2017-01-07T05:11:17.344Z,0
2017-01-07T05:12:28.073Z,0
2017-01-07T05:13:38.769Z,0
2017-01-07T05:14:49.492Z,0
2017-01-07T05:16:00.227Z,0
2017-01-07T05:17:10.946Z,0
2017-01-07T05:18:21.666Z,0
2017-01-07T05:19:32.413Z,0
2017-01-07T05:20:43.134Z,0
2017-01-07T05:21:53.863Z,0
2017-01-07T05:23:04.580Z,0
2017-01-07T05:24:15.310Z,0
2017-01-07T05:25:26.053Z,0
2017-01-07T05:26:36.792Z,0
2017-01-07T05:27:47.471Z,0
2017-01-07T05:28:58.188Z,0
2017-01-07T05:30:08.885Z,0
2017-01-07T05:31:19.585Z,0
2017-01-07T05:32:30.285Z,0
2017-01-07T05:33:41.015Z,0
2017-01-07T05:34:51.740Z,0
2017-01-07T05:36:02.442Z,0
2017-01-07T05:37:13.178Z,0
2017-01-07T05:38:23.914Z,0
2017-01-07T05:39:34.650Z,0
2017-01-07T05:40:45.376Z,0
2017-01-07T05:41:56.123Z,0
2017-01-07T05:43:06.821Z,0
2017-01-07T05:44:17.521Z,0
2017-01-07T05:45:28.236Z,0
2017-01-07T05:46:38.970Z,0
2017-01-07T05:47:49.721Z,0
2017-01-07T05:49:00.442Z,0
2017-01-07T05:50:11.145Z,0
2017-01-07T05:51:21.865Z,0
2017-01-07T05:52:32.958Z,0
2017-01-07T05:53:43.662Z,0
2017-01-07T05:54:54.379Z,0
2017-01-07T05:56:05.076Z,0
2017-01-07T05:57:15.795Z,0
2017-01-07T05:58:26.494Z,0
2017-01-07T05:59:37.209Z,0
2017-01-07T06:00:47.952Z,0
2017-01-07T06:01:59.054Z,0
2017-01-07T06:03:09.755Z,0
2017-01-07T06:04:20.493Z,0
2017-01-07T06:05:31.212Z,0
2017-01-07T06:06:41.932Z,0
2017-01-07T06:07:52.637Z,0
2017-01-07T06:09:03.383Z,0
2017-01-07T06:10:14.117Z,0
2017-01-07T06:11:24.845Z,0
2017-01-07T06:12:35.541Z,0
2017-01-07T06:13:46.241Z,0
2017-01-07T06:14:56.912Z,0
2017-01-07T06:16:07.650Z,0
2017-01-07T06:17:18.379Z,0
2017-01-07T06:18:29.089Z,0
2017-01-07T06:19:39.834Z,0
2017-01-07T06:20:50.566Z,0
2017-01-07T06:22:01.305Z,0
2017-01-07T06:23:12.011Z,0
2017-01-07T06:24:22.731Z,0
2017-01-07T06:25:33.468Z,0
2017-01-07T06:26:44.196Z,0
2017-01-07T06:27:54.892Z,0
2017-01-07T06:29:05.591Z,0
2017-01-07T06:30:16.328Z,0
2017-01-07T06:31:27.019Z,0
2017-01-07T06:32:37.770Z,0
2017-01-07T06:33:48.469Z,0
2017-01-07T06:34:59.170Z,0
2017-01-07T06:36:09.894Z,0
2017-01-07T06:37:20.624Z,0
2017-01-07T06:38:31.328Z,0
2017-01-07T06:39:42.041Z,0
2017-01-07T06:40:52.766Z,0
2017-01-07T06:42:03.487Z,0
2017-01-07T06:43:14.233Z,0
2017-01-07T06:44:24.987Z,0
2017-01-07T06:45:35.709Z,0
2017-01-07T06:46:46.446Z,0
2017-01-07T06:47:57.173Z,0
2017-01-07T06:49:07.867Z,0
2017-01-07T06:50:18.592Z,0
2017-01-07T06:51:29.336Z,0
2017-01-07T06:52:40.029Z,0
2017-01-07T06:53:50.727Z,0
2017-01-07T06:55:01.424Z,0
2017-01-07T06:56:12.169Z,0
2017-01-07T06:57:23.240Z,0
2017-01-07T06:58:33.937Z,0
2017-01-07T06:59:44.650Z,0
2017-01-07T07:00:55.378Z,0
2017-01-07T07:02:06.096Z,0
2017-01-07T07:03:16.813Z,0
2017-01-07T07:04:27.548Z,0
2017-01-07T07:05:38.285Z,0
2017-01-07T07:06:49.001Z,5
2017-01-07T07:07:59.702Z,5
2017-01-07T07:09:10.427Z,5
2017-01-07T07:10:21.149Z,5
2017-01-07T07:11:31.869Z,5
2017-01-07T07:12:42.567Z,5
2017-01-07T07:13:53.285Z,5
2017-01-07T07:15:03.979Z,10
2017-01-07T07:16:14.695Z,10
2017-01-07T07:17:25.395Z,10
2017-01-07T07:18:36.091Z,10
2017-01-07T07:19:46.794Z,10
2017-01-07T07:20:57.503Z,10
2017-01-07T07:22:08.232Z,10
2017-01-07T07:23:18.952Z,15
2017-01-07T07:24:29.672Z,15
2017-01-07T07:25:40.375Z,15
2017-01-07T07:26:51.090Z,15
2017-01-07T07:28:01.816Z,15
2017-01-07T07:29:12.534Z,20
2017-01-07T07:30:23.253Z,20
2017-01-07T07:31:33.975Z,20
2017-01-07T07:32:44.738Z,25
2017-01-07T07:33:55.430Z,25
2017-01-07T07:35:06.140Z,25
2017-01-07T07:36:16.874Z,30
2017-01-07T07:37:27.594Z,30
2017-01-07T07:38:38.326Z,30
2017-01-07T07:39:49.039Z,35
2017-01-07T07:40:59.766Z,35
2017-01-07T07:42:10.468Z,35
2017-01-07T07:43:21.174Z,35
2017-01-07T07:44:31.880Z,35
2017-01-07T07:45:42.619Z,40
2017-01-07T07:46:53.346Z,40
2017-01-07T07:48:04.042Z,45
2017-01-07T07:49:14.744Z,45
2017-01-07T07:50:25.457Z,45
2017-01-07T07:51:36.174Z,50
2017-01-07T07:52:46.892Z,55
2017-01-07T07:53:57.650Z,55
2017-01-07T07:55:08.367Z,60
2017-01-07T07:56:19.062Z,65
2017-01-07T07:57:29.783Z,65
2017-01-07T07:58:40.505Z,70
2017-01-07T07:59:51.221Z,70
2017-01-07T08:01:01.990Z,75
2017-01-07T08:02:12.717Z,75
2017-01-07T08:03:23.392Z,80
2017-01-07T08:04:34.105Z,85
2017-01-07T08:05:44.830Z,85
2017-01-07T08:06:55.554Z,85
2017-01-07T08:08:06.276Z,90
2017-01-07T08:09:16.989Z,90
2017-01-07T08:10:27.734Z,90
2017-01-07T08:11:38.452Z,95
2017-01-07T08:12:49.198Z,95
2017-01-07T08:13:59.927Z,95
2017-01-07T08:15:10.631Z,95
2017-01-07T08:16:21.347Z,100
2017-01-07T08:17:32.060Z,100
2017-01-07T08:18:42.760Z,100
2017-01-07T08:19:53.460Z,105
2017-01-07T08:21:04.157Z,105
2017-01-07T08:22:14.894Z,105
2017-01-07T08:23:25.602Z,110
2017-01-07T08:24:36.298Z,110
2017-01-07T08:25:47.011Z,115
2017-01-07T08:26:57.724Z,115
2017-01-07T08:28:08.434Z,115
2017-01-07T08:29:19.150Z,115
2017-01-07T08:30:29.845Z,115
2017-01-07T08:31:40.986Z,115
2017-01-07T08:32:51.729Z,115
2017-01-07T08:34:02.439Z,115
2017-01-07T08:35:13.178Z,115
2017-01-07T08:36:24.274Z,120
2017-01-07T08:37:34.998Z,120
2017-01-07T08:38:45.715Z,125
2017-01-07T08:39:56.411Z,130
2017-01-07T08:41:07.131Z,135
2017-01-07T08:42:17.857Z,135
2017-01-07T08:43:28.549Z,135
2017-01-07T08:44:39.270Z,135
2017-01-07T08:45:49.983Z,140
2017-01-07T08:47:00.687Z,140
2017-01-07T08:48:11.403Z,140
2017-01-07T08:49:22.123Z,145
2017-01-07T08:50:32.831Z,155
2017-01-07T08:51:43.565Z,160
2017-01-07T08:52:54.311Z,165
2017-01-07T08:54:05.041Z,175
2017-01-07T08:55:15.752Z,175
2017-01-07T08:56:26.482Z,175
2017-01-07T08:57:37.199Z,180
2017-01-07T08:58:47.936Z,180
2017-01-07T08:59:58.682Z,180
2017-01-07T09:01:09.415Z,185
2017-01-07T09:02:20.132Z,185
2017-01-07T09:03:30.871Z,180
2017-01-07T09:04:41.598Z,180
2017-01-07T09:05:52.343Z,180
2017-01-07T09:07:03.067Z,180
2017-01-07T09:08:13.770Z,180
2017-01-07T09:09:24.487Z,180
2017-01-07T09:10:35.220Z,185
2017-01-07T09:11:45.932Z,190
2017-01-07T09:12:56.644Z,195
2017-01-07T09:14:07.367Z,200
2017-01-07T09:15:18.090Z,205
2017-01-07T09:16:28.824Z,205
2017-01-07T09:17:39.552Z,205
2017-01-07T09:18:50.301Z,205
2017-01-07T09:20:00.993Z,210
2017-01-07T09:21:11.710Z,215
2017-01-07T09:22:22.415Z,220
2017-01-07T09:23:33.132Z,225
2017-01-07T09:24:43.831Z,225
2017-01-07T09:25:54.540Z,225
2017-01-07T09:27:05.251Z,225
2017-01-07T09:28:15.967Z,230
2017-01-07T09:29:26.709Z,240
2017-01-07T09:30:37.423Z,245
2017-01-07T09:31:48.151Z,245
2017-01-07T09:32:58.850Z,250
2017-01-07T09:34:09.574Z,250
2017-01-07T09:35:20.264Z,245
2017-01-07T09:36:30.966Z,240
2017-01-07T09:37:41.673Z,240
2017-01-07T09:38:52.405Z,250
2017-01-07T09:40:03.103Z,265
2017-01-07T09:41:13.847Z,265
2017-01-07T09:42:24.564Z,270
2017-01-07T09:43:35.266Z,270
2017-01-07T09:44:45.983Z,280
2017-01-07T09:45:56.681Z,280
2017-01-07T09:47:07.376Z,290
2017-01-07T09:48:18.115Z,290
2017-01-07T09:49:28.860Z,285
2017-01-07T09:50:39.578Z,275
2017-01-07T09:51:50.282Z,265
2017-01-07T09:53:00.999Z,255
2017-01-07T09:54:11.746Z,250
2017-01-07T09:55:22.450Z,245
2017-01-07T09:56:33.169Z,250
2017-01-07T09:57:43.865Z,255
2017-01-07T09:58:54.590Z,260
2017-01-07T10:00:05.304Z,260
2017-01-07T10:01:16.009Z,255
2017-01-07T10:02:26.738Z,260
2017-01-07T10:03:37.467Z,270
2017-01-07T10:04:48.180Z,275
2017-01-07T10:05:58.863Z,275
2017-01-07T10:07:09.584Z,270
2017-01-07T10:08:20.347Z,260
2017-01-07T10:09:31.046Z,255
2017-01-07T10:10:41.743Z,250
2017-01-07T10:11:52.444Z,240
2017-01-07T10:13:03.151Z,235
2017-01-07T10:14:13.883Z,240
2017-01-07T10:15:24.619Z,245
2017-01-07T10:16:35.328Z,245
2017-01-07T10:17:46.063Z,250
2017-01-07T10:18:56.767Z,255
2017-01-07T10:20:07.488Z,260
2017-01-07T10:21:18.210Z,260
2017-01-07T10:22:28.918Z,260
2017-01-07T10:23:39.643Z,265
2017-01-07T10:24:50.371Z,280
2017-01-07T10:26:01.094Z,300
2017-01-07T10:27:12.189Z,320
2017-01-07T10:28:22.927Z,330
2017-01-07T10:29:33.633Z,335
2017-01-07T10:30:44.351Z,340
2017-01-07T10:31:55.069Z,350
2017-01-07T10:33:05.808Z,345
2017-01-07T10:34:16.554Z,345
2017-01-07T10:35:27.258Z,345
2017-01-07T10:36:37.973Z,340
2017-01-07T10:37:48.724Z,330
2017-01-07T10:38:59.425Z,320
2017-01-07T10:40:10.141Z,320
2017-01-07T10:41:20.845Z,320
2017-01-07T10:42:31.563Z,325
2017-01-07T10:43:42.280Z,330
2017-01-07T10:44:53.030Z,330
2017-01-07T10:46:03.746Z,325
2017-01-07T10:47:14.488Z,315
2017-01-07T10:48:25.214Z,310
2017-01-07T10:49:35.942Z,295
2017-01-07T10:50:46.678Z,280
2017-01-07T10:51:57.372Z,255
2017-01-07T10:53:08.119Z,240
2017-01-07T10:54:18.848Z,240
2017-01-07T10:55:29.546Z,240
2017-01-07T10:56:40.237Z,240
2017-01-07T10:57:50.978Z,240
2017-01-07T10:59:01.701Z,235
2017-01-07T11:00:12.445Z,235
2017-01-07T11:01:23.151Z,245
2017-01-07T11:02:33.901Z,245
2017-01-07T11:03:44.616Z,245
2017-01-07T11:04:55.355Z,245
2017-01-07T11:06:06.076Z,240
2017-01-07T11:07:16.806Z,235
2017-01-07T11:08:27.505Z,225
2017-01-07T11:09:38.243Z,220
2017-01-07T11:10:48.957Z,220
2017-01-07T11:11:59.665Z,220
2017-01-07T11:13:10.383Z,220
2017-01-07T11:14:21.103Z,225
2017-01-07T11:15:31.828Z,225
2017-01-07T11:16:42.524Z,225
2017-01-07T11:17:53.250Z,220
2017-01-07T11:19:03.963Z,220
2017-01-07T11:20:14.688Z,220
2017-01-07T11:21:25.405Z,220
2017-01-07T11:22:36.076Z,215
2017-01-07T11:23:46.775Z,220
2017-01-07T11:24:57.493Z,220
2017-01-07T11:26:08.209Z,215
2017-01-07T11:27:18.952Z,215
2017-01-07T11:28:29.686Z,210
2017-01-07T11:29:40.432Z,210
2017-01-07T11:30:51.158Z,210
2017-01-07T11:32:02.265Z,210
2017-01-07T11:33:13.008Z,205
2017-01-07T11:34:23.714Z,200
2017-01-07T11:35:34.414Z,195
2017-01-07T11:36:45.146Z,195
2017-01-07T11:37:55.855Z,200
2017-01-07T11:39:06.550Z,205
2017-01-07T11:40:17.285Z,205
2017-01-07T11:41:28.019Z,215
2017-01-07T11:42:38.759Z,230
2017-01-07T11:43:49.476Z,245
2017-01-07T11:45:00.181Z,260
2017-01-07T11:46:10.914Z,270
2017-01-07T11:47:21.622Z,270
2017-01-07T11:48:32.343Z,265
2017-01-07T11:49:43.065Z,260
2017-01-07T11:50:53.799Z,260
2017-01-07T11:52:04.523Z,260
2017-01-07T11:53:15.248Z,260
2017-01-07T11:54:25.970Z,260
2017-01-07T11:55:36.661Z,260
2017-01-07T11:56:47.391Z,260
2017-01-07T11:57:58.111Z,260
2017-01-07T11:59:08.850Z,260
2017-01-07T12:00:19.570Z,265
2017-01-07T12:01:30.300Z,260
2017-01-07T12:02:41.038Z,255
2017-01-07T12:03:51.769Z,250
2017-01-07T12:05:02.487Z,245
2017-01-07T12:06:13.187Z,245
2017-01-07T12:07:23.898Z,240
2017-01-07T12:08:34.623Z,235
2017-01-07T12:09:45.349Z,230
2017-01-07T12:10:56.107Z,225
2017-01-07T12:12:06.808Z,225
2017-01-07T12:13:17.557Z,225
2017-01-07T12:14:28.308Z,225
2017-01-07T12:15:39.031Z,215
2017-01-07T12:16:49.750Z,210
2017-01-07T12:18:00.471Z,200
2017-01-07T12:19:11.199Z,200
2017-01-07T12:20:21.890Z,200
2017-01-07T12:21:32.625Z,200
2017-01-07T12:22:43.356Z,200
2017-01-07T12:23:54.119Z,200
2017-01-07T12:25:04.861Z,200
2017-01-07T12:26:15.587Z,200
2017-01-07T12:27:26.313Z,195
2017-01-07T12:28:37.050Z,190
2017-01-07T12:29:47.781Z,185
2017-01-07T12:30:58.524Z,185
2017-01-07T12:32:09.251Z,180
2017-01-07T12:33:19.972Z,175
2017-01-07T12:34:30.717Z,170
2017-01-07T12:35:41.437Z,165
2017-01-07T12:36:52.159Z,160
2017-01-07T12:38:02.878Z,155
2017-01-07T12:39:13.615Z,160
2017-01-07T12:40:24.335Z,165
2017-01-07T12:41:35.064Z,165
2017-01-07T12:42:45.788Z,165
2017-01-07T12:43:56.513Z,155
2017-01-07T12:45:07.223Z,145
2017-01-07T12:46:18.368Z,145
2017-01-07T12:47:29.112Z,150
2017-01-07T12:48:39.825Z,155
2017-01-07T12:49:50.565Z,160
2017-01-07T12:51:01.300Z,160
2017-01-07T12:52:12.034Z,165
2017-01-07T12:53:22.773Z,160
2017-01-07T12:54:33.516Z,160
2017-01-07T12:55:44.221Z,150
2017-01-07T12:56:54.989Z,145
2017-01-07T12:58:05.709Z,130
2017-01-07T12:59:16.406Z,130
2017-01-07T13:00:27.154Z,135
2017-01-07T13:01:37.889Z,140
2017-01-07T13:02:48.642Z,150
2017-01-07T13:03:59.364Z,155
2017-01-07T13:05:10.103Z,160
2017-01-07T13:06:20.878Z,165
2017-01-07T13:07:31.602Z,170
2017-01-07T13:08:42.341Z,175
2017-01-07T13:09:53.061Z,175
2017-01-07T13:11:03.765Z,175
2017-01-07T13:12:14.491Z,160
2017-01-07T13:13:25.228Z,155
2017-01-07T13:14:35.946Z,150
2017-01-07T13:15:46.678Z,150
2017-01-07T13:16:57.380Z,140
2017-01-07T13:18:08.109Z,140
2017-01-07T13:19:18.866Z,135
2017-01-07T13:20:29.585Z,130
2017-01-07T13:21:40.298Z,120
2017-01-07T13:22:51.022Z,110
2017-01-07T13:24:01.772Z,105
2017-01-07T13:25:12.522Z,95
2017-01-07T13:26:23.260Z,100
2017-01-07T13:27:33.985Z,100
2017-01-07T13:28:44.709Z,100
2017-01-07T13:29:55.420Z,100
2017-01-07T13:31:06.148Z,100
2017-01-07T13:32:16.873Z,90
2017-01-07T13:33:27.587Z,80
2017-01-07T13:34:38.314Z,75
2017-01-07T13:35:49.036Z,70
2017-01-07T13:36:59.754Z,65
2017-01-07T13:38:10.483Z,65
2017-01-07T13:39:21.225Z,65
2017-01-07T13:40:31.926Z,60
2017-01-07T13:41:42.642Z,60
2017-01-07T13:42:53.368Z,60
2017-01-07T13:44:04.081Z,60
2017-01-07T13:45:14.785Z,60
2017-01-07T13:46:25.504Z,60
2017-01-07T13:47:36.222Z,60
2017-01-07T13:48:46.943Z,60
2017-01-07T13:49:57.664Z,65
2017-01-07T13:51:08.373Z,70
2017-01-07T13:52:19.105Z,75
2017-01-07T13:53:29.801Z,85
2017-01-07T13:54:40.512Z,90
2017-01-07T13:55:51.237Z,100
2017-01-07T13:57:01.941Z,110
2017-01-07T13:58:12.660Z,115
2017-01-07T13:59:23.400Z,120
2017-01-07T14:00:34.129Z,115
2017-01-07T14:01:44.866Z,120
2017-01-07T14:02:55.588Z,120
2017-01-07T14:04:06.264Z,115
2017-01-07T14:05:16.967Z,115
2017-01-07T14:06:27.700Z,110
2017-01-07T14:07:38.405Z,105
2017-01-07T14:08:49.130Z,95
2017-01-07T14:09:59.849Z,90
2017-01-07T14:11:10.574Z,85
2017-01-07T14:12:21.288Z,85
2017-01-07T14:13:32.024Z,85
2017-01-07T14:14:42.757Z,85
2017-01-07T14:15:53.477Z,85
2017-01-07T14:17:04.215Z,85
2017-01-07T14:18:14.921Z,80
2017-01-07T14:19:26.032Z,80
2017-01-07T14:20:36.752Z,80
2017-01-07T14:21:47.453Z,80
2017-01-07T14:22:58.166Z,80
2017-01-07T14:24:08.901Z,75
2017-01-07T14:25:19.619Z,70
2017-01-07T14:26:30.343Z,65
2017-01-07T14:27:41.088Z,55
2017-01-07T14:28:51.826Z,45
2017-01-07T14:30:02.525Z,35
2017-01-07T14:31:13.250Z,35
2017-01-07T14:32:23.993Z,35
2017-01-07T14:33:34.688Z,35
2017-01-07T14:34:45.427Z,35
2017-01-07T14:35:56.130Z,30
2017-01-07T14:37:06.833Z,30
2017-01-07T14:38:17.568Z,30
2017-01-07T14:39:28.296Z,35
2017-01-07T14:40:39.015Z,35
2017-01-07T14:41:49.741Z,35
2017-01-07T14:43:00.437Z,30
2017-01-07T14:44:11.182Z,25
2017-01-07T14:45:21.928Z,25
2017-01-07T14:46:32.662Z,25
2017-01-07T14:47:43.373Z,25
2017-01-07T14:48:54.104Z,20
2017-01-07T14:50:04.807Z,20
2017-01-07T14:51:15.520Z,20
2017-01-07T14:52:26.228Z,20
2017-01-07T14:53:36.966Z,15
2017-01-07T14:54:47.711Z,15
2017-01-07T14:55:58.457Z,15
2017-01-07T14:57:09.204Z,15
2017-01-07T14:58:19.921Z,10
2017-01-07T14:59:30.645Z,10
2017-01-07T15:00:41.377Z,10
2017-01-07T15:01:52.071Z,10
2017-01-07T15:03:02.769Z,5
2017-01-07T15:04:13.479Z,5
2017-01-07T15:05:24.205Z,5
2017-01-07T15:06:35.318Z,5
2017-01-07T15:07:46.024Z,5
2017-01-07T15:08:56.725Z,5
2017-01-07T15:10:07.416Z,5
2017-01-07T15:11:18.140Z,5
2017-01-07T15:12:28.851Z,5
2017-01-07T15:13:39.598Z,0
2017-01-07T15:14:50.319Z,0
2017-01-07T15:16:01.048Z,0
2017-01-07T15:17:11.785Z,0
2017-01-07T15:18:22.520Z,0
2017-01-07T15:19:33.253Z,0
2017-01-07T15:20:43.949Z,0
2017-01-07T15:21:54.670Z,0
2017-01-07T15:23:05.399Z,0
2017-01-07T15:24:16.098Z,0
2017-01-07T15:25:27.232Z,0
2017-01-07T15:26:37.960Z,0
2017-01-07T15:27:48.685Z,0
2017-01-07T15:28:59.424Z,0
2017-01-07T15:30:10.153Z,0
2017-01-07T15:31:20.866Z,0
2017-01-07T15:32:31.579Z,0
2017-01-07T15:33:42.356Z,0
2017-01-07T15:34:53.060Z,0
2017-01-07T15:36:03.781Z,0
2017-01-07T15:37:14.522Z,0
2017-01-07T15:38:25.234Z,0
2017-01-07T15:39:35.937Z,0
2017-01-07T15:40:46.660Z,0
2017-01-07T15:41:57.360Z,0
2017-01-07T15:43:08.091Z,0
2017-01-07T15:44:18.812Z,0
2017-01-07T15:45:29.558Z,0
2017-01-07T15:46:40.262Z,0
2017-01-07T15:47:50.982Z,0
2017-01-07T15:49:01.699Z,0
2017-01-07T15:50:12.416Z,0
2017-01-07T15:51:23.541Z,0
2017-01-07T15:52:34.297Z,0
2017-01-07T15:53:45.015Z,0
2017-01-07T15:54:56.128Z,0
2017-01-07T15:56:06.899Z,0
2017-01-07T15:57:17.642Z,0
2017-01-07T15:58:28.366Z,0
2017-01-07T15:59:39.083Z,0
2017-01-07T16:00:49.786Z,0
2017-01-07T16:02:00.503Z,0
2017-01-07T16:03:11.203Z,0
2017-01-07T16:04:21.945Z,0
2017-01-07T16:05:32.666Z,0
2017-01-07T16:06:43.436Z,0
2017-01-07T16:07:54.161Z,0
2017-01-07T16:09:04.876Z,0
2017-01-07T16:10:15.599Z,0
2017-01-07T16:11:26.317Z,0
2017-01-07T16:12:37.023Z,0
2017-01-07T16:13:47.741Z,0
2017-01-07T16:14:58.446Z,0
2017-01-07T16:16:09.158Z,0
2017-01-07T16:17:19.881Z,0
2017-01-07T16:18:30.578Z,0
2017-01-07T16:19:41.316Z,0
2017-01-07T16:20:52.041Z,0
2017-01-07T16:22:02.769Z,0
2017-01-07T16:23:13.504Z,0
2017-01-07T16:24:24.228Z,0
2017-01-07T16:25:34.942Z,0
2017-01-07T16:26:45.680Z,0
2017-01-07T16:27:56.413Z,0
2017-01-07T16:29:07.121Z,0
2017-01-07T16:30:17.851Z,0
2017-01-07T16:31:28.577Z,0
2017-01-07T16:32:39.284Z,0
2017-01-07T16:33:50.021Z,0
2017-01-07T16:35:00.742Z,0
2017-01-07T16:36:11.444Z,0
2017-01-07T16:37:22.143Z,0
2017-01-07T16:38:32.879Z,0
2017-01-07T16:39:43.593Z,0
2017-01-07T16:40:54.343Z,0
2017-01-07T16:42:05.051Z,0
2017-01-07T16:43:15.784Z,0
2017-01-07T16:44:26.530Z,0
2017-01-07T16:45:37.236Z,0
2017-01-07T16:46:47.955Z,0
2017-01-07T16:47:58.677Z,0
2017-01-07T16:49:09.399Z,0
2017-01-07T16:50:20.118Z,0
2017-01-07T16:51:30.834Z,0
2017-01-07T16:52:41.563Z,0
2017-01-07T16:53:52.294Z,0
2017-01-07T16:55:03.002Z,0
2017-01-07T16:56:13.719Z,0